Airport Name : Braunschweig Wolfsburg

Other Name : Braunschweig

ICAO : EDVE

IATA : BWE

FAA :

Latitude : 52.319167

Longitude : 10.556111

Country : Germany

Local Date and Time : 4/26/2018 6:00:00 AM

 

TAF (Terminal Aerodrome Forecast)

 

METAR (METeorological Aerodrome Report)

EDVE 260350Z 22006KT 190V250 CAVOK 09/05 Q1011

EDVE 260320Z 23007KT 9999 BKN048 BKN070 08/05 Q1011

EDVE 260250Z 23007KT 9999 FEW049 BKN065 08/05 Q1011

EDVE 260220Z 22006KT CAVOK 08/05 Q1011

EDVE 260150Z 23006KT CAVOK 08/05 Q1011

EDVE 260120Z VRB03KT 9999 FEW047 BKN084 05/05 Q1011

EDVE 260050Z VRB02KT 9999 MIFG NSC 05/04 Q1011

EDVE 260020Z 09001KT 9999 MIFG FEW040 05/04 Q1011